<?xml version="1.0" encoding="UTF-8" ?>
<gpx version="1.0" xmlns:xsi="http://www.w3.org/2001/XMLSchema-instance"
	xmlns="http://www.topografix.com/GPX/1/0"
	xsi:schemaLocation="http://www.topografix.com/GPX/1/0 http://www.topografix.com/GPX/1/0/gpx.xsd"
	creator="https://www.openrunner.com">	<trk>
					<name>7003353-retour GR 111 </name>
					<trkseg>
				<trkpt lat="48.416430" lon="2.725960">
					<ele>80</ele>
					<time>2018-02-18T06:55:49Z</time>
				</trkpt>
				<trkpt lat="48.417090" lon="2.726330">
					<ele>83</ele>
					<time>2018-02-18T06:56:49Z</time>
				</trkpt>
				<trkpt lat="48.417510" lon="2.726800">
					<ele>83</ele>
					<time>2018-02-18T06:57:49Z</time>
				</trkpt>
				<trkpt lat="48.417930" lon="2.726970">
					<ele>88</ele>
					<time>2018-02-18T06:58:49Z</time>
				</trkpt>
				<trkpt lat="48.419190" lon="2.727940">
					<ele>91</ele>
					<time>2018-02-18T06:59:49Z</time>
				</trkpt>
				<trkpt lat="48.420200" lon="2.728880">
					<ele>85</ele>
					<time>2018-02-18T07:00:49Z</time>
				</trkpt>
				<trkpt lat="48.422020" lon="2.730900">
					<ele>83</ele>
					<time>2018-02-18T07:01:49Z</time>
				</trkpt>
				<trkpt lat="48.423560" lon="2.732290">
					<ele>86</ele>
					<time>2018-02-18T07:02:49Z</time>
				</trkpt>
				<trkpt lat="48.424140" lon="2.733200">
					<ele>83</ele>
					<time>2018-02-18T07:03:49Z</time>
				</trkpt>
				<trkpt lat="48.423760" lon="2.734350">
					<ele>81</ele>
					<time>2018-02-18T07:04:49Z</time>
				</trkpt>
				<trkpt lat="48.425200" lon="2.736370">
					<ele>83</ele>
					<time>2018-02-18T07:05:49Z</time>
				</trkpt>
				<trkpt lat="48.425940" lon="2.738370">
					<ele>75</ele>
					<time>2018-02-18T07:06:49Z</time>
				</trkpt>
				<trkpt lat="48.426350" lon="2.740880">
					<ele>72</ele>
					<time>2018-02-18T07:07:49Z</time>
				</trkpt>
				<trkpt lat="48.427050" lon="2.741670">
					<ele>71</ele>
					<time>2018-02-18T07:08:49Z</time>
				</trkpt>
				<trkpt lat="48.428610" lon="2.742160">
					<ele>69</ele>
					<time>2018-02-18T07:09:49Z</time>
				</trkpt>
				<trkpt lat="48.430010" lon="2.741950">
					<ele>70</ele>
					<time>2018-02-18T07:10:49Z</time>
				</trkpt>
				<trkpt lat="48.431310" lon="2.742270">
					<ele>69</ele>
					<time>2018-02-18T07:11:49Z</time>
				</trkpt>
				<trkpt lat="48.432720" lon="2.742190">
					<ele>74</ele>
					<time>2018-02-18T07:12:49Z</time>
				</trkpt>
				<trkpt lat="48.433240" lon="2.741950">
					<ele>80</ele>
					<time>2018-02-18T07:13:49Z</time>
				</trkpt>
				<trkpt lat="48.434720" lon="2.742680">
					<ele>79</ele>
					<time>2018-02-18T07:14:49Z</time>
				</trkpt>
				<trkpt lat="48.435150" lon="2.743300">
					<ele>72</ele>
					<time>2018-02-18T07:15:49Z</time>
				</trkpt>
				<trkpt lat="48.436230" lon="2.743320">
					<ele>83</ele>
					<time>2018-02-18T07:16:49Z</time>
				</trkpt>
				<trkpt lat="48.437290" lon="2.743690">
					<ele>84</ele>
					<time>2018-02-18T07:17:49Z</time>
				</trkpt>
				<trkpt lat="48.437730" lon="2.744100">
					<ele>81</ele>
					<time>2018-02-18T07:18:49Z</time>
				</trkpt>
				<trkpt lat="48.438580" lon="2.744800">
					<ele>75</ele>
					<time>2018-02-18T07:19:49Z</time>
				</trkpt>
				<trkpt lat="48.440150" lon="2.745830">
					<ele>76</ele>
					<time>2018-02-18T07:20:49Z</time>
				</trkpt>
				<trkpt lat="48.443620" lon="2.748220">
					<ele>77</ele>
					<time>2018-02-18T07:21:49Z</time>
				</trkpt>
				<trkpt lat="48.444470" lon="2.750020">
					<ele>51</ele>
					<time>2018-02-18T07:22:49Z</time>
				</trkpt>
				<trkpt lat="48.446720" lon="2.752190">
					<ele>49</ele>
					<time>2018-02-18T07:23:49Z</time>
				</trkpt>
				<trkpt lat="48.447260" lon="2.753340">
					<ele>44</ele>
					<time>2018-02-18T07:24:49Z</time>
				</trkpt>
				<trkpt lat="48.448050" lon="2.754870">
					<ele>49</ele>
					<time>2018-02-18T07:25:49Z</time>
				</trkpt>
				<trkpt lat="48.449530" lon="2.756860">
					<ele>48</ele>
					<time>2018-02-18T07:26:49Z</time>
				</trkpt>
				<trkpt lat="48.450340" lon="2.757490">
					<ele>46</ele>
					<time>2018-02-18T07:27:49Z</time>
				</trkpt>
				<trkpt lat="48.451280" lon="2.758600">
					<ele>47</ele>
					<time>2018-02-18T07:28:49Z</time>
				</trkpt>
				<trkpt lat="48.451820" lon="2.759070">
					<ele>44</ele>
					<time>2018-02-18T07:29:49Z</time>
				</trkpt>
				<trkpt lat="48.452300" lon="2.759520">
					<ele>43</ele>
					<time>2018-02-18T07:30:49Z</time>
				</trkpt>
				<trkpt lat="48.453400" lon="2.761730">
					<ele>45</ele>
					<time>2018-02-18T07:31:49Z</time>
				</trkpt>
				<trkpt lat="48.454650" lon="2.765730">
					<ele>42</ele>
					<time>2018-02-18T07:32:49Z</time>
				</trkpt>
				<trkpt lat="48.455630" lon="2.767080">
					<ele>42</ele>
					<time>2018-02-18T07:33:49Z</time>
				</trkpt>
				<trkpt lat="48.457470" lon="2.768770">
					<ele>42</ele>
					<time>2018-02-18T07:34:49Z</time>
				</trkpt>
				<trkpt lat="48.459190" lon="2.769630">
					<ele>42</ele>
					<time>2018-02-18T07:35:49Z</time>
				</trkpt>
				<trkpt lat="48.460940" lon="2.770000">
					<ele>45</ele>
					<time>2018-02-18T07:36:49Z</time>
				</trkpt>
				<trkpt lat="48.463200" lon="2.770100">
					<ele>46</ele>
					<time>2018-02-18T07:37:49Z</time>
				</trkpt>
				<trkpt lat="48.464110" lon="2.770190">
					<ele>44</ele>
					<time>2018-02-18T07:38:49Z</time>
				</trkpt>
				<trkpt lat="48.465150" lon="2.770600">
					<ele>47</ele>
					<time>2018-02-18T07:39:49Z</time>
				</trkpt>
				<trkpt lat="48.466620" lon="2.770810">
					<ele>49</ele>
					<time>2018-02-18T07:40:49Z</time>
				</trkpt>
				<trkpt lat="48.468790" lon="2.770380">
					<ele>51</ele>
					<time>2018-02-18T07:41:49Z</time>
				</trkpt>
				<trkpt lat="48.471870" lon="2.768900">
					<ele>51</ele>
					<time>2018-02-18T07:42:49Z</time>
				</trkpt>
				<trkpt lat="48.474190" lon="2.767700">
					<ele>52</ele>
					<time>2018-02-18T07:43:49Z</time>
				</trkpt>
				<trkpt lat="48.476670" lon="2.765850">
					<ele>53</ele>
					<time>2018-02-18T07:44:49Z</time>
				</trkpt>
				<trkpt lat="48.478000" lon="2.764820">
					<ele>52</ele>
					<time>2018-02-18T07:45:49Z</time>
				</trkpt>
				<trkpt lat="48.481430" lon="2.760730">
					<ele>49</ele>
					<time>2018-02-18T07:46:49Z</time>
				</trkpt>
				<trkpt lat="48.482050" lon="2.760080">
					<ele>44</ele>
					<time>2018-02-18T07:47:49Z</time>
				</trkpt>
				<trkpt lat="48.484100" lon="2.756180">
					<ele>46</ele>
					<time>2018-02-18T07:48:49Z</time>
				</trkpt>
				<trkpt lat="48.485050" lon="2.752610">
					<ele>48</ele>
					<time>2018-02-18T07:49:49Z</time>
				</trkpt>
				<trkpt lat="48.485290" lon="2.751930">
					<ele>47</ele>
					<time>2018-02-18T07:50:49Z</time>
				</trkpt>
				<trkpt lat="48.485350" lon="2.750960">
					<ele>48</ele>
					<time>2018-02-18T07:51:49Z</time>
				</trkpt>
				<trkpt lat="48.486100" lon="2.747420">
					<ele>44</ele>
					<time>2018-02-18T07:52:49Z</time>
				</trkpt>
				<trkpt lat="48.486450" lon="2.742620">
					<ele>44</ele>
					<time>2018-02-18T07:53:49Z</time>
				</trkpt>
				<trkpt lat="48.486260" lon="2.738020">
					<ele>44</ele>
					<time>2018-02-18T07:54:49Z</time>
				</trkpt>
				<trkpt lat="48.485740" lon="2.732490">
					<ele>45</ele>
					<time>2018-02-18T07:55:49Z</time>
				</trkpt>
				<trkpt lat="48.485620" lon="2.727640">
					<ele>47</ele>
					<time>2018-02-18T07:56:49Z</time>
				</trkpt>
				<trkpt lat="48.485510" lon="2.723350">
					<ele>43</ele>
					<time>2018-02-18T07:57:49Z</time>
				</trkpt>
				<trkpt lat="48.485280" lon="2.720240">
					<ele>45</ele>
					<time>2018-02-18T07:58:49Z</time>
				</trkpt>
				<trkpt lat="48.484900" lon="2.717570">
					<ele>43</ele>
					<time>2018-02-18T07:59:49Z</time>
				</trkpt>
				<trkpt lat="48.484680" lon="2.717380">
					<ele>44</ele>
					<time>2018-02-18T08:00:49Z</time>
				</trkpt>
				<trkpt lat="48.484380" lon="2.716290">
					<ele>45</ele>
					<time>2018-02-18T08:01:49Z</time>
				</trkpt>
				<trkpt lat="48.484370" lon="2.715810">
					<ele>45</ele>
					<time>2018-02-18T08:02:49Z</time>
				</trkpt>
				<trkpt lat="48.481820" lon="2.707730">
					<ele>43</ele>
					<time>2018-02-18T08:03:49Z</time>
				</trkpt>
				<trkpt lat="48.481480" lon="2.707810">
					<ele>45</ele>
					<time>2018-02-18T08:04:49Z</time>
				</trkpt>
				<trkpt lat="48.481160" lon="2.705770">
					<ele>45</ele>
					<time>2018-02-18T08:05:49Z</time>
				</trkpt>
				<trkpt lat="48.480420" lon="2.705900">
					<ele>50</ele>
					<time>2018-02-18T08:06:49Z</time>
				</trkpt>
				<trkpt lat="48.479410" lon="2.705770">
					<ele>52</ele>
					<time>2018-02-18T08:07:49Z</time>
				</trkpt>
				<trkpt lat="48.477060" lon="2.705040">
					<ele>57</ele>
					<time>2018-02-18T08:08:49Z</time>
				</trkpt>
				<trkpt lat="48.477930" lon="2.701420">
					<ele>55</ele>
					<time>2018-02-18T08:09:49Z</time>
				</trkpt>
				<trkpt lat="48.478250" lon="2.697360">
					<ele>55</ele>
					<time>2018-02-18T08:10:49Z</time>
				</trkpt>
				<trkpt lat="48.478080" lon="2.697210">
					<ele>57</ele>
					<time>2018-02-18T08:11:49Z</time>
				</trkpt>
				<trkpt lat="48.477610" lon="2.696760">
					<ele>60</ele>
					<time>2018-02-18T08:12:49Z</time>
				</trkpt>
				<trkpt lat="48.476500" lon="2.695410">
					<ele>67</ele>
					<time>2018-02-18T08:13:49Z</time>
				</trkpt>
				<trkpt lat="48.476490" lon="2.694850">
					<ele>67</ele>
					<time>2018-02-18T08:14:49Z</time>
				</trkpt>
				<trkpt lat="48.476210" lon="2.694440">
					<ele>72</ele>
					<time>2018-02-18T08:15:49Z</time>
				</trkpt>
				<trkpt lat="48.476080" lon="2.694040">
					<ele>76</ele>
					<time>2018-02-18T08:16:49Z</time>
				</trkpt>
				<trkpt lat="48.475130" lon="2.693850">
					<ele>81</ele>
					<time>2018-02-18T08:17:49Z</time>
				</trkpt>
				<trkpt lat="48.474570" lon="2.694080">
					<ele>81</ele>
					<time>2018-02-18T08:18:49Z</time>
				</trkpt>
				<trkpt lat="48.475000" lon="2.693460">
					<ele>80</ele>
					<time>2018-02-18T08:19:49Z</time>
				</trkpt>
				<trkpt lat="48.474830" lon="2.693070">
					<ele>80</ele>
					<time>2018-02-18T08:20:49Z</time>
				</trkpt>
				<trkpt lat="48.475250" lon="2.691780">
					<ele>79</ele>
					<time>2018-02-18T08:21:49Z</time>
				</trkpt>
				<trkpt lat="48.474210" lon="2.690880">
					<ele>83</ele>
					<time>2018-02-18T08:22:49Z</time>
				</trkpt>
				<trkpt lat="48.473500" lon="2.692600">
					<ele>84</ele>
					<time>2018-02-18T08:23:49Z</time>
				</trkpt>
				<trkpt lat="48.473020" lon="2.692550">
					<ele>84</ele>
					<time>2018-02-18T08:24:49Z</time>
				</trkpt>
				<trkpt lat="48.472280" lon="2.690170">
					<ele>88</ele>
					<time>2018-02-18T08:25:49Z</time>
				</trkpt>
				<trkpt lat="48.471130" lon="2.686570">
					<ele>96</ele>
					<time>2018-02-18T08:26:49Z</time>
				</trkpt>
				<trkpt lat="48.470830" lon="2.685320">
					<ele>98</ele>
					<time>2018-02-18T08:27:49Z</time>
				</trkpt>
				<trkpt lat="48.470800" lon="2.684590">
					<ele>99</ele>
					<time>2018-02-18T08:28:49Z</time>
				</trkpt>
				<trkpt lat="48.470440" lon="2.684380">
					<ele>100</ele>
					<time>2018-02-18T08:29:49Z</time>
				</trkpt>
				<trkpt lat="48.469290" lon="2.680430">
					<ele>94</ele>
					<time>2018-02-18T08:30:49Z</time>
				</trkpt>
				<trkpt lat="48.468920" lon="2.680040">
					<ele>94</ele>
					<time>2018-02-18T08:31:49Z</time>
				</trkpt>
				<trkpt lat="48.465040" lon="2.667840">
					<ele>93</ele>
					<time>2018-02-18T08:32:49Z</time>
				</trkpt>
				<trkpt lat="48.464090" lon="2.664960">
					<ele>98</ele>
					<time>2018-02-18T08:33:49Z</time>
				</trkpt>
				<trkpt lat="48.463960" lon="2.664260">
					<ele>100</ele>
					<time>2018-02-18T08:34:49Z</time>
				</trkpt>
				<trkpt lat="48.463580" lon="2.663760">
					<ele>99</ele>
					<time>2018-02-18T08:35:49Z</time>
				</trkpt>
				<trkpt lat="48.463350" lon="2.663670">
					<ele>99</ele>
					<time>2018-02-18T08:36:49Z</time>
				</trkpt>
				<trkpt lat="48.463310" lon="2.663390">
					<ele>98</ele>
					<time>2018-02-18T08:37:49Z</time>
				</trkpt>
				<trkpt lat="48.463110" lon="2.663090">
					<ele>98</ele>
					<time>2018-02-18T08:38:49Z</time>
				</trkpt>
				<trkpt lat="48.463090" lon="2.662940">
					<ele>97</ele>
					<time>2018-02-18T08:39:49Z</time>
				</trkpt>
				<trkpt lat="48.463330" lon="2.662780">
					<ele>96</ele>
					<time>2018-02-18T08:40:49Z</time>
				</trkpt>
				<trkpt lat="48.463280" lon="2.662540">
					<ele>95</ele>
					<time>2018-02-18T08:41:49Z</time>
				</trkpt>
				<trkpt lat="48.463190" lon="2.662660">
					<ele>96</ele>
					<time>2018-02-18T08:42:49Z</time>
				</trkpt>
				<trkpt lat="48.463100" lon="2.662650">
					<ele>96</ele>
					<time>2018-02-18T08:43:49Z</time>
				</trkpt>
				<trkpt lat="48.462990" lon="2.662850">
					<ele>97</ele>
					<time>2018-02-18T08:44:49Z</time>
				</trkpt>
				<trkpt lat="48.462900" lon="2.663000">
					<ele>98</ele>
					<time>2018-02-18T08:45:49Z</time>
				</trkpt>
				<trkpt lat="48.462750" lon="2.663080">
					<ele>99</ele>
					<time>2018-02-18T08:46:49Z</time>
				</trkpt>
				<trkpt lat="48.462600" lon="2.663260">
					<ele>100</ele>
					<time>2018-02-18T08:47:49Z</time>
				</trkpt>
				<trkpt lat="48.462430" lon="2.663090">
					<ele>100</ele>
					<time>2018-02-18T08:48:49Z</time>
				</trkpt>
				<trkpt lat="48.462210" lon="2.662930">
					<ele>100</ele>
					<time>2018-02-18T08:49:49Z</time>
				</trkpt>
				<trkpt lat="48.461990" lon="2.663010">
					<ele>101</ele>
					<time>2018-02-18T08:50:49Z</time>
				</trkpt>
				<trkpt lat="48.461780" lon="2.662930">
					<ele>102</ele>
					<time>2018-02-18T08:51:49Z</time>
				</trkpt>
				<trkpt lat="48.461540" lon="2.662870">
					<ele>103</ele>
					<time>2018-02-18T08:52:49Z</time>
				</trkpt>
				<trkpt lat="48.461340" lon="2.662800">
					<ele>104</ele>
					<time>2018-02-18T08:53:49Z</time>
				</trkpt>
				<trkpt lat="48.461230" lon="2.662700">
					<ele>104</ele>
					<time>2018-02-18T08:54:49Z</time>
				</trkpt>
				<trkpt lat="48.461020" lon="2.662900">
					<ele>105</ele>
					<time>2018-02-18T08:55:49Z</time>
				</trkpt>
				<trkpt lat="48.460930" lon="2.663110">
					<ele>105</ele>
					<time>2018-02-18T08:56:49Z</time>
				</trkpt>
				<trkpt lat="48.460970" lon="2.663290">
					<ele>104</ele>
					<time>2018-02-18T08:57:49Z</time>
				</trkpt>
				<trkpt lat="48.460870" lon="2.663450">
					<ele>104</ele>
					<time>2018-02-18T08:58:49Z</time>
				</trkpt>
				<trkpt lat="48.460800" lon="2.663800">
					<ele>103</ele>
					<time>2018-02-18T08:59:49Z</time>
				</trkpt>
				<trkpt lat="48.460730" lon="2.663470">
					<ele>104</ele>
					<time>2018-02-18T09:00:49Z</time>
				</trkpt>
				<trkpt lat="48.460530" lon="2.663320">
					<ele>104</ele>
					<time>2018-02-18T09:01:49Z</time>
				</trkpt>
				<trkpt lat="48.460440" lon="2.663160">
					<ele>104</ele>
					<time>2018-02-18T09:02:49Z</time>
				</trkpt>
				<trkpt lat="48.460300" lon="2.663020">
					<ele>103</ele>
					<time>2018-02-18T09:03:49Z</time>
				</trkpt>
				<trkpt lat="48.460160" lon="2.663070">
					<ele>103</ele>
					<time>2018-02-18T09:04:49Z</time>
				</trkpt>
				<trkpt lat="48.459870" lon="2.662970">
					<ele>102</ele>
					<time>2018-02-18T09:05:49Z</time>
				</trkpt>
				<trkpt lat="48.459710" lon="2.662810">
					<ele>102</ele>
					<time>2018-02-18T09:06:49Z</time>
				</trkpt>
				<trkpt lat="48.459660" lon="2.662510">
					<ele>102</ele>
					<time>2018-02-18T09:07:49Z</time>
				</trkpt>
				<trkpt lat="48.459660" lon="2.661270">
					<ele>101</ele>
					<time>2018-02-18T09:08:49Z</time>
				</trkpt>
				<trkpt lat="48.458580" lon="2.660580">
					<ele>102</ele>
					<time>2018-02-18T09:09:49Z</time>
				</trkpt>
				<trkpt lat="48.457390" lon="2.660360">
					<ele>115</ele>
					<time>2018-02-18T09:10:49Z</time>
				</trkpt>
				<trkpt lat="48.456870" lon="2.660270">
					<ele>126</ele>
					<time>2018-02-18T09:11:49Z</time>
				</trkpt>
				<trkpt lat="48.456400" lon="2.660140">
					<ele>131</ele>
					<time>2018-02-18T09:12:49Z</time>
				</trkpt>
				<trkpt lat="48.456100" lon="2.660070">
					<ele>133</ele>
					<time>2018-02-18T09:13:49Z</time>
				</trkpt>
				<trkpt lat="48.447820" lon="2.658650">
					<ele>139</ele>
					<time>2018-02-18T09:14:49Z</time>
				</trkpt>
				<trkpt lat="48.447160" lon="2.660330">
					<ele>141</ele>
					<time>2018-02-18T09:15:49Z</time>
				</trkpt>
				<trkpt lat="48.445200" lon="2.661630">
					<ele>142</ele>
					<time>2018-02-18T09:16:49Z</time>
				</trkpt>
				<trkpt lat="48.444070" lon="2.664520">
					<ele>143</ele>
					<time>2018-02-18T09:17:49Z</time>
				</trkpt>
				<trkpt lat="48.443800" lon="2.669640">
					<ele>145</ele>
					<time>2018-02-18T09:18:49Z</time>
				</trkpt>
				<trkpt lat="48.443840" lon="2.671350">
					<ele>146</ele>
					<time>2018-02-18T09:19:49Z</time>
				</trkpt>
				<trkpt lat="48.443670" lon="2.671670">
					<ele>146</ele>
					<time>2018-02-18T09:20:49Z</time>
				</trkpt>
				<trkpt lat="48.443520" lon="2.671900">
					<ele>146</ele>
					<time>2018-02-18T09:21:49Z</time>
				</trkpt>
				<trkpt lat="48.443540" lon="2.672160">
					<ele>147</ele>
					<time>2018-02-18T09:22:49Z</time>
				</trkpt>
				<trkpt lat="48.443160" lon="2.672710">
					<ele>146</ele>
					<time>2018-02-18T09:23:49Z</time>
				</trkpt>
				<trkpt lat="48.443150" lon="2.673210">
					<ele>145</ele>
					<time>2018-02-18T09:24:49Z</time>
				</trkpt>
				<trkpt lat="48.442860" lon="2.673740">
					<ele>139</ele>
					<time>2018-02-18T09:25:49Z</time>
				</trkpt>
				<trkpt lat="48.442430" lon="2.673840">
					<ele>133</ele>
					<time>2018-02-18T09:26:49Z</time>
				</trkpt>
				<trkpt lat="48.442170" lon="2.674650">
					<ele>129</ele>
					<time>2018-02-18T09:27:49Z</time>
				</trkpt>
				<trkpt lat="48.442230" lon="2.675280">
					<ele>127</ele>
					<time>2018-02-18T09:28:49Z</time>
				</trkpt>
				<trkpt lat="48.442100" lon="2.675910">
					<ele>124</ele>
					<time>2018-02-18T09:29:49Z</time>
				</trkpt>
				<trkpt lat="48.441590" lon="2.676430">
					<ele>116</ele>
					<time>2018-02-18T09:30:49Z</time>
				</trkpt>
				<trkpt lat="48.441210" lon="2.676750">
					<ele>112</ele>
					<time>2018-02-18T09:31:49Z</time>
				</trkpt>
				<trkpt lat="48.441200" lon="2.677230">
					<ele>111</ele>
					<time>2018-02-18T09:32:49Z</time>
				</trkpt>
				<trkpt lat="48.441410" lon="2.678040">
					<ele>115</ele>
					<time>2018-02-18T09:33:49Z</time>
				</trkpt>
				<trkpt lat="48.441100" lon="2.678800">
					<ele>113</ele>
					<time>2018-02-18T09:34:49Z</time>
				</trkpt>
				<trkpt lat="48.441120" lon="2.679550">
					<ele>112</ele>
					<time>2018-02-18T09:35:49Z</time>
				</trkpt>
				<trkpt lat="48.441050" lon="2.680590">
					<ele>110</ele>
					<time>2018-02-18T09:36:49Z</time>
				</trkpt>
				<trkpt lat="48.440850" lon="2.680660">
					<ele>107</ele>
					<time>2018-02-18T09:37:49Z</time>
				</trkpt>
				<trkpt lat="48.440600" lon="2.681270">
					<ele>105</ele>
					<time>2018-02-18T09:38:49Z</time>
				</trkpt>
				<trkpt lat="48.440240" lon="2.681960">
					<ele>103</ele>
					<time>2018-02-18T09:39:49Z</time>
				</trkpt>
				<trkpt lat="48.440250" lon="2.682230">
					<ele>104</ele>
					<time>2018-02-18T09:40:49Z</time>
				</trkpt>
				<trkpt lat="48.440100" lon="2.682520">
					<ele>103</ele>
					<time>2018-02-18T09:41:49Z</time>
				</trkpt>
				<trkpt lat="48.440130" lon="2.682760">
					<ele>104</ele>
					<time>2018-02-18T09:42:49Z</time>
				</trkpt>
				<trkpt lat="48.440030" lon="2.683150">
					<ele>103</ele>
					<time>2018-02-18T09:43:49Z</time>
				</trkpt>
				<trkpt lat="48.439790" lon="2.683250">
					<ele>102</ele>
					<time>2018-02-18T09:44:49Z</time>
				</trkpt>
				<trkpt lat="48.439750" lon="2.683500">
					<ele>102</ele>
					<time>2018-02-18T09:45:49Z</time>
				</trkpt>
				<trkpt lat="48.439630" lon="2.683840">
					<ele>102</ele>
					<time>2018-02-18T09:46:49Z</time>
				</trkpt>
				<trkpt lat="48.439730" lon="2.684450">
					<ele>103</ele>
					<time>2018-02-18T09:47:49Z</time>
				</trkpt>
				<trkpt lat="48.439850" lon="2.684600">
					<ele>104</ele>
					<time>2018-02-18T09:48:49Z</time>
				</trkpt>
				<trkpt lat="48.439850" lon="2.684910">
					<ele>103</ele>
					<time>2018-02-18T09:49:49Z</time>
				</trkpt>
				<trkpt lat="48.439880" lon="2.685180">
					<ele>103</ele>
					<time>2018-02-18T09:50:49Z</time>
				</trkpt>
				<trkpt lat="48.439720" lon="2.685360">
					<ele>100</ele>
					<time>2018-02-18T09:51:49Z</time>
				</trkpt>
				<trkpt lat="48.439810" lon="2.685570">
					<ele>100</ele>
					<time>2018-02-18T09:52:49Z</time>
				</trkpt>
				<trkpt lat="48.439730" lon="2.685810">
					<ele>98</ele>
					<time>2018-02-18T09:53:49Z</time>
				</trkpt>
				<trkpt lat="48.439610" lon="2.685710">
					<ele>97</ele>
					<time>2018-02-18T09:54:49Z</time>
				</trkpt>
				<trkpt lat="48.439660" lon="2.686430">
					<ele>94</ele>
					<time>2018-02-18T09:55:49Z</time>
				</trkpt>
				<trkpt lat="48.439800" lon="2.687100">
					<ele>92</ele>
					<time>2018-02-18T09:56:49Z</time>
				</trkpt>
				<trkpt lat="48.439790" lon="2.687710">
					<ele>90</ele>
					<time>2018-02-18T09:57:49Z</time>
				</trkpt>
				<trkpt lat="48.439730" lon="2.688090">
					<ele>90</ele>
					<time>2018-02-18T09:58:49Z</time>
				</trkpt>
				<trkpt lat="48.439340" lon="2.688620">
					<ele>89</ele>
					<time>2018-02-18T09:59:49Z</time>
				</trkpt>
				<trkpt lat="48.439420" lon="2.689710">
					<ele>88</ele>
					<time>2018-02-18T10:00:49Z</time>
				</trkpt>
				<trkpt lat="48.439490" lon="2.690080">
					<ele>87</ele>
					<time>2018-02-18T10:01:49Z</time>
				</trkpt>
				<trkpt lat="48.439690" lon="2.690410">
					<ele>87</ele>
					<time>2018-02-18T10:02:49Z</time>
				</trkpt>
				<trkpt lat="48.439880" lon="2.691100">
					<ele>86</ele>
					<time>2018-02-18T10:03:49Z</time>
				</trkpt>
				<trkpt lat="48.439350" lon="2.691330">
					<ele>90</ele>
					<time>2018-02-18T10:04:49Z</time>
				</trkpt>
				<trkpt lat="48.439290" lon="2.691960">
					<ele>96</ele>
					<time>2018-02-18T10:05:49Z</time>
				</trkpt>
				<trkpt lat="48.439360" lon="2.692510">
					<ele>101</ele>
					<time>2018-02-18T10:06:49Z</time>
				</trkpt>
				<trkpt lat="48.439270" lon="2.692870">
					<ele>103</ele>
					<time>2018-02-18T10:07:49Z</time>
				</trkpt>
				<trkpt lat="48.439150" lon="2.692840">
					<ele>104</ele>
					<time>2018-02-18T10:08:49Z</time>
				</trkpt>
				<trkpt lat="48.439170" lon="2.693030">
					<ele>105</ele>
					<time>2018-02-18T10:09:49Z</time>
				</trkpt>
				<trkpt lat="48.438970" lon="2.693460">
					<ele>107</ele>
					<time>2018-02-18T10:10:49Z</time>
				</trkpt>
				<trkpt lat="48.438990" lon="2.693710">
					<ele>107</ele>
					<time>2018-02-18T10:11:49Z</time>
				</trkpt>
				<trkpt lat="48.438880" lon="2.693930">
					<ele>108</ele>
					<time>2018-02-18T10:12:49Z</time>
				</trkpt>
				<trkpt lat="48.438890" lon="2.694130">
					<ele>108</ele>
					<time>2018-02-18T10:13:49Z</time>
				</trkpt>
				<trkpt lat="48.438620" lon="2.694190">
					<ele>109</ele>
					<time>2018-02-18T10:14:49Z</time>
				</trkpt>
				<trkpt lat="48.438770" lon="2.694480">
					<ele>108</ele>
					<time>2018-02-18T10:15:49Z</time>
				</trkpt>
				<trkpt lat="48.438750" lon="2.694860">
					<ele>108</ele>
					<time>2018-02-18T10:16:49Z</time>
				</trkpt>
				<trkpt lat="48.438890" lon="2.694600">
					<ele>108</ele>
					<time>2018-02-18T10:17:49Z</time>
				</trkpt>
				<trkpt lat="48.438940" lon="2.694820">
					<ele>107</ele>
					<time>2018-02-18T10:18:49Z</time>
				</trkpt>
				<trkpt lat="48.438880" lon="2.695370">
					<ele>107</ele>
					<time>2018-02-18T10:19:49Z</time>
				</trkpt>
				<trkpt lat="48.439010" lon="2.695790">
					<ele>106</ele>
					<time>2018-02-18T10:20:49Z</time>
				</trkpt>
				<trkpt lat="48.438790" lon="2.695850">
					<ele>108</ele>
					<time>2018-02-18T10:21:49Z</time>
				</trkpt>
				<trkpt lat="48.438660" lon="2.696560">
					<ele>110</ele>
					<time>2018-02-18T10:22:49Z</time>
				</trkpt>
				<trkpt lat="48.438420" lon="2.697080">
					<ele>114</ele>
					<time>2018-02-18T10:23:49Z</time>
				</trkpt>
				<trkpt lat="48.438510" lon="2.697250">
					<ele>113</ele>
					<time>2018-02-18T10:24:49Z</time>
				</trkpt>
				<trkpt lat="48.438260" lon="2.697780">
					<ele>117</ele>
					<time>2018-02-18T10:25:49Z</time>
				</trkpt>
				<trkpt lat="48.438320" lon="2.698180">
					<ele>119</ele>
					<time>2018-02-18T10:26:49Z</time>
				</trkpt>
				<trkpt lat="48.438520" lon="2.698350">
					<ele>118</ele>
					<time>2018-02-18T10:27:49Z</time>
				</trkpt>
				<trkpt lat="48.438670" lon="2.698500">
					<ele>117</ele>
					<time>2018-02-18T10:28:49Z</time>
				</trkpt>
				<trkpt lat="48.438590" lon="2.698920">
					<ele>120</ele>
					<time>2018-02-18T10:29:49Z</time>
				</trkpt>
				<trkpt lat="48.438600" lon="2.699200">
					<ele>121</ele>
					<time>2018-02-18T10:30:49Z</time>
				</trkpt>
				<trkpt lat="48.438110" lon="2.699800">
					<ele>126</ele>
					<time>2018-02-18T10:31:49Z</time>
				</trkpt>
				<trkpt lat="48.437980" lon="2.700100">
					<ele>128</ele>
					<time>2018-02-18T10:32:49Z</time>
				</trkpt>
				<trkpt lat="48.437800" lon="2.700310">
					<ele>130</ele>
					<time>2018-02-18T10:33:49Z</time>
				</trkpt>
				<trkpt lat="48.437650" lon="2.700730">
					<ele>132</ele>
					<time>2018-02-18T10:34:49Z</time>
				</trkpt>
				<trkpt lat="48.437510" lon="2.701400">
					<ele>136</ele>
					<time>2018-02-18T10:35:49Z</time>
				</trkpt>
				<trkpt lat="48.437580" lon="2.701890">
					<ele>138</ele>
					<time>2018-02-18T10:36:49Z</time>
				</trkpt>
				<trkpt lat="48.437610" lon="2.702070">
					<ele>139</ele>
					<time>2018-02-18T10:37:49Z</time>
				</trkpt>
				<trkpt lat="48.437880" lon="2.701700">
					<ele>137</ele>
					<time>2018-02-18T10:38:49Z</time>
				</trkpt>
				<trkpt lat="48.438040" lon="2.701010">
					<ele>130</ele>
					<time>2018-02-18T10:39:49Z</time>
				</trkpt>
				<trkpt lat="48.438270" lon="2.700590">
					<ele>127</ele>
					<time>2018-02-18T10:40:49Z</time>
				</trkpt>
				<trkpt lat="48.438610" lon="2.700150">
					<ele>122</ele>
					<time>2018-02-18T10:41:49Z</time>
				</trkpt>
				<trkpt lat="48.438840" lon="2.700260">
					<ele>119</ele>
					<time>2018-02-18T10:42:49Z</time>
				</trkpt>
				<trkpt lat="48.439090" lon="2.700310">
					<ele>115</ele>
					<time>2018-02-18T10:43:49Z</time>
				</trkpt>
				<trkpt lat="48.439290" lon="2.700020">
					<ele>111</ele>
					<time>2018-02-18T10:44:49Z</time>
				</trkpt>
				<trkpt lat="48.439630" lon="2.699600">
					<ele>109</ele>
					<time>2018-02-18T10:45:49Z</time>
				</trkpt>
				<trkpt lat="48.440130" lon="2.699290">
					<ele>106</ele>
					<time>2018-02-18T10:46:49Z</time>
				</trkpt>
				<trkpt lat="48.441530" lon="2.700790">
					<ele>107</ele>
					<time>2018-02-18T10:47:49Z</time>
				</trkpt>
				<trkpt lat="48.441560" lon="2.701480">
					<ele>106</ele>
					<time>2018-02-18T10:48:49Z</time>
				</trkpt>
				<trkpt lat="48.440820" lon="2.702080">
					<ele>114</ele>
					<time>2018-02-18T10:49:49Z</time>
				</trkpt>
				<trkpt lat="48.440930" lon="2.702900">
					<ele>114</ele>
					<time>2018-02-18T10:50:49Z</time>
				</trkpt>
				<trkpt lat="48.440330" lon="2.704100">
					<ele>115</ele>
					<time>2018-02-18T10:51:49Z</time>
				</trkpt>
				<trkpt lat="48.440270" lon="2.704570">
					<ele>116</ele>
					<time>2018-02-18T10:52:49Z</time>
				</trkpt>
				<trkpt lat="48.440030" lon="2.704680">
					<ele>119</ele>
					<time>2018-02-18T10:53:49Z</time>
				</trkpt>
				<trkpt lat="48.440020" lon="2.704970">
					<ele>120</ele>
					<time>2018-02-18T10:54:49Z</time>
				</trkpt>
				<trkpt lat="48.440200" lon="2.704810">
					<ele>117</ele>
					<time>2018-02-18T10:55:49Z</time>
				</trkpt>
				<trkpt lat="48.440300" lon="2.704960">
					<ele>116</ele>
					<time>2018-02-18T10:56:49Z</time>
				</trkpt>
				<trkpt lat="48.440700" lon="2.705560">
					<ele>109</ele>
					<time>2018-02-18T10:57:49Z</time>
				</trkpt>
				<trkpt lat="48.440100" lon="2.706290">
					<ele>115</ele>
					<time>2018-02-18T10:58:49Z</time>
				</trkpt>
				<trkpt lat="48.440450" lon="2.706850">
					<ele>108</ele>
					<time>2018-02-18T10:59:49Z</time>
				</trkpt>
				<trkpt lat="48.440050" lon="2.707960">
					<ele>110</ele>
					<time>2018-02-18T11:00:49Z</time>
				</trkpt>
				<trkpt lat="48.439710" lon="2.707450">
					<ele>114</ele>
					<time>2018-02-18T11:01:49Z</time>
				</trkpt>
				<trkpt lat="48.439160" lon="2.708350">
					<ele>120</ele>
					<time>2018-02-18T11:02:49Z</time>
				</trkpt>
				<trkpt lat="48.439360" lon="2.709380">
					<ele>117</ele>
					<time>2018-02-18T11:03:49Z</time>
				</trkpt>
				<trkpt lat="48.438790" lon="2.711220">
					<ele>113</ele>
					<time>2018-02-18T11:04:49Z</time>
				</trkpt>
				<trkpt lat="48.438940" lon="2.712340">
					<ele>111</ele>
					<time>2018-02-18T11:05:49Z</time>
				</trkpt>
				<trkpt lat="48.439160" lon="2.714230">
					<ele>103</ele>
					<time>2018-02-18T11:06:49Z</time>
				</trkpt>
				<trkpt lat="48.438850" lon="2.715340">
					<ele>96</ele>
					<time>2018-02-18T11:07:49Z</time>
				</trkpt>
				<trkpt lat="48.438370" lon="2.715560">
					<ele>97</ele>
					<time>2018-02-18T11:08:49Z</time>
				</trkpt>
				<trkpt lat="48.438220" lon="2.716460">
					<ele>99</ele>
					<time>2018-02-18T11:09:49Z</time>
				</trkpt>
				<trkpt lat="48.437830" lon="2.717790">
					<ele>98</ele>
					<time>2018-02-18T11:10:49Z</time>
				</trkpt>
				<trkpt lat="48.437140" lon="2.718730">
					<ele>100</ele>
					<time>2018-02-18T11:11:49Z</time>
				</trkpt>
				<trkpt lat="48.436520" lon="2.718820">
					<ele>102</ele>
					<time>2018-02-18T11:12:49Z</time>
				</trkpt>
				<trkpt lat="48.436060" lon="2.720360">
					<ele>103</ele>
					<time>2018-02-18T11:13:49Z</time>
				</trkpt>
				<trkpt lat="48.435690" lon="2.721820">
					<ele>105</ele>
					<time>2018-02-18T11:14:49Z</time>
				</trkpt>
				<trkpt lat="48.435010" lon="2.722120">
					<ele>112</ele>
					<time>2018-02-18T11:15:49Z</time>
				</trkpt>
				<trkpt lat="48.434670" lon="2.725000">
					<ele>122</ele>
					<time>2018-02-18T11:16:49Z</time>
				</trkpt>
				<trkpt lat="48.433840" lon="2.726500">
					<ele>124</ele>
					<time>2018-02-18T11:17:49Z</time>
				</trkpt>
				<trkpt lat="48.434000" lon="2.725940">
					<ele>127</ele>
					<time>2018-02-18T11:18:49Z</time>
				</trkpt>
				<trkpt lat="48.433840" lon="2.725590">
					<ele>126</ele>
					<time>2018-02-18T11:19:49Z</time>
				</trkpt>
				<trkpt lat="48.433770" lon="2.724740">
					<ele>127</ele>
					<time>2018-02-18T11:20:49Z</time>
				</trkpt>
				<trkpt lat="48.433880" lon="2.724470">
					<ele>128</ele>
					<time>2018-02-18T11:21:49Z</time>
				</trkpt>
				<trkpt lat="48.433800" lon="2.724370">
					<ele>128</ele>
					<time>2018-02-18T11:22:49Z</time>
				</trkpt>
				<trkpt lat="48.433390" lon="2.724280">
					<ele>126</ele>
					<time>2018-02-18T11:23:49Z</time>
				</trkpt>
				<trkpt lat="48.433380" lon="2.723870">
					<ele>126</ele>
					<time>2018-02-18T11:24:49Z</time>
				</trkpt>
				<trkpt lat="48.433270" lon="2.723830">
					<ele>126</ele>
					<time>2018-02-18T11:25:49Z</time>
				</trkpt>
				<trkpt lat="48.432790" lon="2.724050">
					<ele>124</ele>
					<time>2018-02-18T11:26:49Z</time>
				</trkpt>
				<trkpt lat="48.432400" lon="2.724450">
					<ele>121</ele>
					<time>2018-02-18T11:27:49Z</time>
				</trkpt>
				<trkpt lat="48.431740" lon="2.725770">
					<ele>118</ele>
					<time>2018-02-18T11:28:49Z</time>
				</trkpt>
				<trkpt lat="48.428400" lon="2.730740">
					<ele>101</ele>
					<time>2018-02-18T11:29:49Z</time>
				</trkpt>
				<trkpt lat="48.424160" lon="2.733260">
					<ele>83</ele>
					<time>2018-02-18T11:30:49Z</time>
				</trkpt>
				<trkpt lat="48.420930" lon="2.729700">
					<ele>83</ele>
					<time>2018-02-18T11:31:49Z</time>
				</trkpt>
				<trkpt lat="48.419800" lon="2.728430">
					<ele>88</ele>
					<time>2018-02-18T11:32:49Z</time>
				</trkpt>
				<trkpt lat="48.416120" lon="2.726160">
					<ele>78</ele>
					<time>2018-02-18T11:33:49Z</time>
				</trkpt>		</trkseg>
	</trk>
</gpx>